createdAt,value
2023-10-11T00:03:53.992Z,14.90
2023-10-11T00:07:59.246Z,14.86
2023-10-11T00:12:05.657Z,14.80
2023-10-11T00:16:10.655Z,14.76
2023-10-11T00:20:29.379Z,14.72
2023-10-11T00:24:33.142Z,14.70
2023-10-11T00:28:42.606Z,14.69
2023-10-11T00:32:46.728Z,14.65
2023-10-11T00:36:51.627Z,14.63
2023-10-11T00:41:08.540Z,14.61
2023-10-11T00:45:18.284Z,14.60
2023-10-11T00:49:23.203Z,14.56
2023-10-11T00:53:28.417Z,14.54
2023-10-11T00:57:36.655Z,14.53
2023-10-11T01:01:41.766Z,14.55
2023-10-11T01:05:50.501Z,14.54
2023-10-11T01:09:54.127Z,14.50
2023-10-11T01:14:00.572Z,14.42
2023-10-11T01:18:05.799Z,14.39
2023-10-11T01:22:10.929Z,14.35
2023-10-11T01:26:16.718Z,14.30
2023-10-11T01:30:20.116Z,14.26
2023-10-11T01:34:28.345Z,14.20
2023-10-11T01:38:34.772Z,14.21
2023-10-11T01:42:38.762Z,14.25
2023-10-11T01:46:42.767Z,14.35
2023-10-11T01:50:49.073Z,14.46
2023-10-11T01:54:58.127Z,14.61
2023-10-11T01:59:03.094Z,14.72
2023-10-11T02:03:09.822Z,14.80
2023-10-11T02:07:14.037Z,14.85
2023-10-11T02:11:24.657Z,14.86
2023-10-11T02:15:30.669Z,14.83
2023-10-11T02:19:36.462Z,14.78
2023-10-11T02:23:41.465Z,14.78
2023-10-11T02:27:46.777Z,14.79
2023-10-11T02:31:52.795Z,14.78
2023-10-11T02:36:09.804Z,14.75
2023-10-11T02:40:17.921Z,14.71
2023-10-11T02:44:24.587Z,14.66
2023-10-11T02:48:28.883Z,14.62
2023-10-11T02:52:37.512Z,14.57
2023-10-11T02:56:48.412Z,14.57
2023-10-11T03:01:07.900Z,14.57
2023-10-11T03:05:28.533Z,14.57
2023-10-11T03:09:34.538Z,14.57
2023-10-11T03:13:43.409Z,14.57
2023-10-11T03:17:54.725Z,14.56
2023-10-11T03:21:58.955Z,14.53
2023-10-11T03:26:17.576Z,14.50
2023-10-11T03:30:25.365Z,14.45
2023-10-11T03:34:32.174Z,14.41
2023-10-11T03:38:35.674Z,14.35
2023-10-11T03:42:55.250Z,14.31
2023-10-11T03:47:00.184Z,14.27
2023-10-11T03:51:08.576Z,14.26
2023-10-11T03:55:14.426Z,14.26
2023-10-11T03:59:20.057Z,14.26
2023-10-11T04:03:23.476Z,14.21
2023-10-11T04:07:32.954Z,14.14
2023-10-11T04:11:40.913Z,14.01
2023-10-11T04:15:51.044Z,13.91
2023-10-11T04:20:01.361Z,13.82
2023-10-11T04:24:08.336Z,13.76
2023-10-11T04:28:14.084Z,13.71
2023-10-11T04:32:21.608Z,13.69
2023-10-11T04:36:25.706Z,13.67
2023-10-11T04:40:51.147Z,13.67
2023-10-11T04:44:58.660Z,13.67
2023-10-11T04:49:22.319Z,13.68
2023-10-11T04:53:34.420Z,13.69
2023-10-11T04:57:42.115Z,13.67
2023-10-11T05:02:00.331Z,13.61
2023-10-11T05:06:14.478Z,13.54
2023-10-11T05:10:31.819Z,13.46
2023-10-11T05:14:41.196Z,13.41
2023-10-11T05:18:45.249Z,13.38
2023-10-11T05:22:56.410Z,13.41
2023-10-11T05:27:13.476Z,13.46
2023-10-11T05:31:35.943Z,13.55
2023-10-11T05:36:06.350Z,13.65
2023-10-11T05:40:30.362Z,13.75
2023-10-11T05:44:52.191Z,13.88
2023-10-11T05:49:14.880Z,14.01
2023-10-11T05:53:22.133Z,14.10
2023-10-11T05:57:29.728Z,14.18
2023-10-11T06:01:35.540Z,14.20
2023-10-11T06:05:42.755Z,14.22
2023-10-11T06:09:47.556Z,14.22
2023-10-11T06:13:54.200Z,14.25
2023-10-11T06:17:58.154Z,14.29
2023-10-11T06:22:11.568Z,14.37
2023-10-11T06:26:51.695Z,14.46
2023-10-11T06:30:54.989Z,14.61
2023-10-11T06:34:58.854Z,14.75
2023-10-11T06:39:21.972Z,14.95
2023-10-11T06:43:25.250Z,15.20
2023-10-11T06:47:35.374Z,15.43
2023-10-11T06:51:39.428Z,15.72
2023-10-11T06:55:49.604Z,16.06
2023-10-11T06:59:58.400Z,16.35
2023-10-11T07:04:02.359Z,16.65
2023-10-11T07:08:09.468Z,16.92
2023-10-11T07:12:28.222Z,17.23
2023-10-11T07:16:33.014Z,17.59
2023-10-11T07:20:49.239Z,17.94
2023-10-11T07:24:57.270Z,18.30
2023-10-11T07:29:03.963Z,18.71
2023-10-11T07:33:07.887Z,19.10
2023-10-11T07:37:13.665Z,19.52
2023-10-11T07:41:25.570Z,19.91
2023-10-11T07:45:31.684Z,20.29
2023-10-11T07:49:40.776Z,20.62
2023-10-11T07:53:46.123Z,20.97
2023-10-11T07:57:49.640Z,21.34
2023-10-11T08:01:58.770Z,21.70
2023-10-11T08:06:06.540Z,22.01
2023-10-11T08:10:32.218Z,22.37
2023-10-11T08:14:35.707Z,22.73
2023-10-11T08:18:40.479Z,23.07
2023-10-11T08:22:48.009Z,23.35
2023-10-11T08:26:53.740Z,23.66
2023-10-11T08:31:00.128Z,24.01
2023-10-11T08:35:06.000Z,24.39
2023-10-11T08:39:14.687Z,24.78
2023-10-11T08:43:19.835Z,25.16
2023-10-11T08:47:23.447Z,25.49
2023-10-11T08:51:37.888Z,25.81
2023-10-11T08:55:42.122Z,26.13
2023-10-11T08:59:51.960Z,26.43
2023-10-11T09:04:06.775Z,26.69
2023-10-11T09:08:23.072Z,26.90
2023-10-11T09:12:27.472Z,27.07
2023-10-11T09:16:36.799Z,27.27
2023-10-11T09:20:45.679Z,27.47
2023-10-11T09:25:08.967Z,27.64
2023-10-11T09:29:17.986Z,27.71
2023-10-11T09:33:23.447Z,27.70
2023-10-11T09:37:33.140Z,27.69
2023-10-11T09:41:42.094Z,27.74
2023-10-11T09:45:55.940Z,27.81
2023-10-11T09:50:02.864Z,27.96
2023-10-11T09:54:14.793Z,28.15
2023-10-11T09:58:31.989Z,28.40
2023-10-11T10:02:39.049Z,28.63
2023-10-11T10:07:13.901Z,28.76
2023-10-11T10:11:22.020Z,28.84
2023-10-11T10:15:35.150Z,28.96
2023-10-11T10:19:47.543Z,29.10
2023-10-11T10:23:52.885Z,29.26
2023-10-11T10:28:02.252Z,29.49
2023-10-11T10:32:20.553Z,29.73
2023-10-11T10:36:39.105Z,29.99
2023-10-11T10:40:47.359Z,30.17
2023-10-11T10:44:53.501Z,30.34
2023-10-11T10:48:58.955Z,30.44
2023-10-11T10:53:04.411Z,30.48
2023-10-11T10:57:09.604Z,30.47
2023-10-11T11:01:13.970Z,30.49
2023-10-11T11:05:28.141Z,30.51
2023-10-11T11:09:36.747Z,30.52
2023-10-11T11:13:41.940Z,30.56
2023-10-11T11:17:52.689Z,30.67
2023-10-11T11:22:13.393Z,30.80
2023-10-11T11:30:35.741Z,31.13
2023-10-11T11:34:43.027Z,31.28
2023-10-11T11:38:51.061Z,31.46
2023-10-11T11:42:56.302Z,31.61
2023-10-11T11:47:05.808Z,31.77
2023-10-11T11:51:17.881Z,31.85
2023-10-11T11:55:27.797Z,31.98
2023-10-11T11:59:32.578Z,32.05
2023-10-11T12:03:37.827Z,32.08
2023-10-11T12:07:41.885Z,32.15
2023-10-11T12:11:51.316Z,32.26
2023-10-11T12:15:58.053Z,32.33
2023-10-11T12:20:01.629Z,32.37
2023-10-11T12:24:24.315Z,32.35
2023-10-11T12:28:43.890Z,32.34
2023-10-11T12:32:50.139Z,32.32
2023-10-11T12:36:56.326Z,32.34
2023-10-11T12:41:02.596Z,32.28
2023-10-11T12:45:11.566Z,32.17
2023-10-11T12:49:16.164Z,31.98
2023-10-11T12:53:22.745Z,31.81
2023-10-11T12:57:30.151Z,31.67
2023-10-11T13:01:41.609Z,31.54
2023-10-11T13:05:47.324Z,31.36
2023-10-11T13:09:50.679Z,31.21
2023-10-11T13:14:12.338Z,31.06
2023-10-11T13:18:26.183Z,30.96
2023-10-11T13:22:36.640Z,30.87
2023-10-11T13:26:44.550Z,30.80
2023-10-11T13:35:19.422Z,30.76
2023-10-11T13:39:34.664Z,30.76
2023-10-11T13:43:39.059Z,30.79
2023-10-11T13:47:43.012Z,30.83
2023-10-11T13:51:49.901Z,30.88
2023-10-11T13:55:56.315Z,30.90
2023-10-11T14:00:24.237Z,30.93
2023-10-11T14:04:49.158Z,30.98
2023-10-11T14:08:54.439Z,31.00
2023-10-11T14:13:10.758Z,30.98
2023-10-11T14:17:16.994Z,30.95
2023-10-11T14:21:26.614Z,30.92
2023-10-11T14:25:31.783Z,30.87
2023-10-11T14:33:54.167Z,30.68
2023-10-11T14:38:16.707Z,30.57
2023-10-11T14:42:26.224Z,30.44
2023-10-11T14:46:31.028Z,30.34
2023-10-11T14:50:48.466Z,30.26
2023-10-11T14:55:06.523Z,30.13
2023-10-11T14:59:13.825Z,30.03
2023-10-11T15:03:17.942Z,29.93
2023-10-11T15:07:21.815Z,29.81
2023-10-11T15:11:29.903Z,29.66
2023-10-11T15:15:35.696Z,29.51
2023-10-11T15:19:40.624Z,29.36
2023-10-11T15:23:45.683Z,29.17
2023-10-11T15:27:50.530Z,28.96
2023-10-11T15:31:55.586Z,28.72
2023-10-11T15:36:01.456Z,28.43
2023-10-11T15:40:07.209Z,28.14
2023-10-11T15:44:17.747Z,27.87
2023-10-11T15:48:23.919Z,27.58
2023-10-11T15:52:27.926Z,27.29
2023-10-11T15:56:34.422Z,26.98
2023-10-11T16:00:43.329Z,26.67
2023-10-11T16:04:49.444Z,26.33
2023-10-11T16:08:53.568Z,25.97
2023-10-11T16:12:59.019Z,25.62
2023-10-11T16:17:05.543Z,25.28
2023-10-11T16:21:12.483Z,24.95
2023-10-11T16:25:20.306Z,24.60
2023-10-11T16:29:56.122Z,24.28
2023-10-11T16:34:57.546Z,23.94
2023-10-11T16:39:02.644Z,23.59
2023-10-11T16:43:06.930Z,23.26
2023-10-11T16:47:10.768Z,22.97
2023-10-11T16:51:17.374Z,22.68
2023-10-11T16:55:23.271Z,22.43
2023-10-11T16:59:26.681Z,22.17
2023-10-11T17:03:30.629Z,21.96
2023-10-11T17:07:34.102Z,21.76
2023-10-11T17:11:39.333Z,21.59
2023-10-11T17:15:45.777Z,21.43
2023-10-11T17:19:51.298Z,21.28
2023-10-11T17:23:55.001Z,21.14
2023-10-11T17:28:00.765Z,21.03
2023-10-11T17:36:34.839Z,20.79
2023-10-11T17:40:39.064Z,20.66
2023-10-11T17:44:45.465Z,20.54
2023-10-11T17:48:50.224Z,20.43
2023-10-11T17:52:56.032Z,20.33
2023-10-11T17:56:59.616Z,20.22
2023-10-11T18:01:03.141Z,20.15
2023-10-11T18:05:09.259Z,20.10
2023-10-11T18:09:17.567Z,20.07
2023-10-11T18:13:21.306Z,20.02
2023-10-11T18:17:29.854Z,19.97
2023-10-11T18:21:37.819Z,19.92
2023-10-11T18:25:43.602Z,19.85
2023-10-11T18:29:50.564Z,19.78
2023-10-11T18:33:56.502Z,19.75
2023-10-11T18:38:00.973Z,19.69
2023-10-11T18:42:06.453Z,19.59
2023-10-11T18:46:11.906Z,19.43
2023-10-11T18:50:16.462Z,19.28
2023-10-11T18:54:25.172Z,19.25
2023-10-11T18:58:33.491Z,19.27
2023-10-11T19:02:37.403Z,19.32
2023-10-11T19:06:41.655Z,19.38
2023-10-11T19:10:45.532Z,19.44
2023-10-11T19:14:52.369Z,19.47
2023-10-11T19:18:58.119Z,19.47
2023-10-11T19:23:03.564Z,19.40
2023-10-11T19:27:07.996Z,19.28
2023-10-11T19:31:17.312Z,19.15
2023-10-11T19:35:25.434Z,19.01
2023-10-11T19:39:37.469Z,18.87
2023-10-11T19:43:41.258Z,18.74
2023-10-11T20:03:55.670Z,18.04
2023-10-11T20:08:01.693Z,17.93
2023-10-11T20:12:07.899Z,17.85
2023-10-11T20:16:12.878Z,17.78
2023-10-11T20:20:20.879Z,17.73
2023-10-11T20:24:24.558Z,17.65
2023-10-11T20:28:32.806Z,17.57
2023-10-11T20:32:36.939Z,17.47
2023-10-11T20:36:43.830Z,17.39
2023-10-11T20:40:51.526Z,17.31
2023-10-11T20:44:55.290Z,17.27
2023-10-11T20:49:00.298Z,17.22
2023-10-11T20:53:05.600Z,17.17
2023-10-11T20:57:18.046Z,17.12
2023-10-11T21:01:22.149Z,17.12
2023-10-11T21:05:27.465Z,17.13
2023-10-11T21:09:33.278Z,17.17
2023-10-11T21:13:37.385Z,17.25
2023-10-11T21:17:42.218Z,17.40
2023-10-11T21:21:49.917Z,17.56
2023-10-11T21:26:01.720Z,17.71
2023-10-11T21:30:06.281Z,17.82
2023-10-11T21:34:13.361Z,17.83
2023-10-11T21:38:16.900Z,17.78
2023-10-11T21:42:23.480Z,17.67
2023-10-11T21:46:26.949Z,17.54
2023-10-11T21:50:31.225Z,17.42
2023-10-11T21:54:36.145Z,17.26
2023-10-11T21:58:41.935Z,17.12
2023-10-11T22:02:46.932Z,16.94
2023-10-11T22:06:51.530Z,16.79
2023-10-11T22:10:56.284Z,16.61
2023-10-11T22:15:06.194Z,16.50
2023-10-11T22:19:16.616Z,16.37
2023-10-11T22:23:21.814Z,16.28
2023-10-11T22:27:25.687Z,16.23
2023-10-11T22:31:31.979Z,16.19
2023-10-11T22:35:35.960Z,16.16
2023-10-11T22:39:39.544Z,16.15
2023-10-11T22:43:44.428Z,16.13
2023-10-11T22:47:49.792Z,16.12
2023-10-11T22:51:56.445Z,16.08
2023-10-11T22:55:59.867Z,16.03
2023-10-11T23:00:05.336Z,15.99
2023-10-11T23:04:10.320Z,15.93
2023-10-11T23:08:14.709Z,15.89
2023-10-11T23:12:21.980Z,15.83
2023-10-11T23:16:28.857Z,15.76
2023-10-11T23:20:40.100Z,15.70
2023-10-11T23:24:46.038Z,15.65
2023-10-11T23:28:49.520Z,15.61
2023-10-11T23:33:09.020Z,15.57
2023-10-11T23:37:16.069Z,15.55
2023-10-11T23:41:21.371Z,15.50
2023-10-11T23:45:24.647Z,15.45
2023-10-11T23:53:45.292Z,15.35
2023-10-11T23:57:51.093Z,15.29
